Time;durP1;ratioP1;P1;durP2;ratioP2;P2;SDS_P1;SDS_P2;PMS_P1;PMS_P2;Temp;Humidity;BMP_temperature;BMP_pressure;BME280_temperature;BME280_humidity;BME280_pressure;Samples;Min_cycle;Max_cycle;Signal;HPM_P1;HPM_P2
2021/09/18 00:00:15;;;;;;;14.38;6.62;;;;;;;15.05;59.61;100540.45;1790688;80;20939;-63
2021/09/18 00:02:44;;;;;;;14.75;6.55;;;;;;;15.03;59.85;100536.64;1769161;80;20935;-63
2021/09/18 00:05:11;;;;;;;11.00;6.30;;;;;;;15.03;59.85;100536.64;1792316;80;20998;-63
2021/09/18 00:07:38;;;;;;;16.67;5.97;;;;;;;15.03;59.94;100538.41;1781990;80;21594;-63
2021/09/18 00:11:40;;;;;;;14.40;7.72;;;;;;;15.08;60.31;100534.95;1798588;79;22669;-62
2021/09/18 00:14:07;;;;;;;20.85;7.45;;;;;;;15.02;60.46;100542.87;1758412;80;20908;-63
2021/09/18 00:16:35;;;;;;;15.10;6.67;;;;;;;15.04;61.25;100535.66;1757771;81;21958;-63
2021/09/18 00:19:04;;;;;;;18.40;7.33;;;;;;;15.04;61.25;100535.66;1749897;80;20920;-63
2021/09/18 00:21:32;;;;;;;12.95;6.33;;;;;;;15.05;61.28;100531.21;1749979;82;20932;-63
2021/09/18 00:23:59;;;;;;;13.53;6.42;;;;;;;15.05;61.32;100528.11;1750016;80;20883;-62
2021/09/18 00:26:26;;;;;;;13.95;6.22;;;;;;;15.08;61.30;100526.53;1750107;82;21467;-63
2021/09/18 00:28:54;;;;;;;11.95;6.40;;;;;;;15.08;61.30;100526.53;1750235;82;20959;-63
2021/09/18 00:31:21;;;;;;;12.95;6.95;;;;;;;15.09;61.70;100533.48;1749901;81;20864;-63
2021/09/18 00:33:50;;;;;;;14.85;6.10;;;;;;;15.10;61.88;100527.74;1750038;82;20857;-64
2021/09/18 00:36:18;;;;;;;17.73;6.83;;;;;;;15.12;62.04;100524.01;1750056;82;20932;-63
2021/09/18 00:38:46;;;;;;;15.38;6.03;;;;;;;15.16;62.47;100516.66;1750133;80;20920;-63
2021/09/18 00:41:14;;;;;;;17.67;5.70;;;;;;;15.19;62.29;100511.63;1750313;82;21927;-63
2021/09/18 00:43:41;;;;;;;16.48;6.55;;;;;;;15.24;62.17;100503.67;1750060;82;20952;-63
2021/09/18 00:46:08;;;;;;;15.40;6.08;;;;;;;15.24;62.17;100503.67;1749978;82;21315;-64
2021/09/18 00:48:35;;;;;;;12.70;6.12;;;;;;;15.30;62.33;100509.78;1750008;82;20928;-62
2021/09/18 00:51:01;;;;;;;11.45;5.80;;;;;;;15.30;62.33;100509.78;1750052;82;20932;-63
2021/09/18 00:53:28;;;;;;;11.28;6.30;;;;;;;15.32;62.22;100511.83;1750206;82;21130;-63
2021/09/18 00:55:55;;;;;;;15.32;6.17;;;;;;;15.33;62.13;100508.69;1720985;82;21421;-62
2021/09/18 00:58:24;;;;;;;14.45;6.37;;;;;;;15.32;62.07;100501.75;1749987;82;20964;-63
2021/09/18 01:00:51;;;;;;;20.30;6.55;;;;;;;15.32;62.07;100501.75;1749909;82;20939;-63
2021/09/18 01:03:19;;;;;;;17.80;7.05;;;;;;;15.29;62.07;100500.16;1750018;81;20956;-63
2021/09/18 01:05:47;;;;;;;17.23;6.28;;;;;;;15.28;62.03;100504.28;1749921;82;21144;-62
2021/09/18 01:08:13;;;;;;;18.10;5.92;;;;;;;15.24;62.19;100498.88;1750064;82;20888;-63
2021/09/18 01:10:41;;;;;;;14.98;6.22;;;;;;;15.23;62.24;100495.86;1750272;80;20912;-63
2021/09/18 01:13:15;;;;;;;15.83;5.70;;;;;;;15.20;62.32;100495.64;1750683;80;20864;-63
2021/09/18 01:15:42;;;;;;;9.50;5.87;;;;;;;15.19;62.44;100497.11;1750580;80;21466;-63
2021/09/18 01:18:09;;;;;;;16.95;7.92;;;;;;;15.22;62.40;100504.28;1750726;80;21153;-63
2021/09/18 01:20:40;;;;;;;16.12;9.98;;;;;;;15.22;62.40;100504.28;1750645;82;21338;-64
2021/09/18 01:23:08;;;;;;;15.78;6.62;;;;;;;15.23;62.58;100500.69;1750391;82;20923;-63
2021/09/18 01:25:38;;;;;;;11.65;5.83;;;;;;;15.22;62.57;100497.67;1750081;82;20892;-64
2021/09/18 01:28:07;;;;;;;12.20;6.50;;;;;;;15.23;62.56;100498.05;1750349;80;20916;-63
2021/09/18 01:30:36;;;;;;;24.72;7.28;;;;;;;15.23;62.54;100495.86;1750073;82;20919;-63
2021/09/18 01:33:04;;;;;;;9.45;5.58;;;;;;;15.18;62.80;100495.41;1750172;82;20914;-63
2021/09/18 01:35:33;;;;;;;10.45;6.25;;;;;;;15.18;62.80;100495.41;1750314;80;20971;-63
2021/09/18 01:38:00;;;;;;;17.17;6.83;;;;;;;15.12;62.84;100490.16;1749978;82;21419;-62
2021/09/18 01:40:30;;;;;;;18.98;5.58;;;;;;;15.12;62.84;100490.16;1750196;82;21397;-63
2021/09/18 01:42:57;;;;;;;19.75;7.62;;;;;;;15.09;62.95;100495.67;1750535;82;21112;-64
2021/09/18 01:45:24;;;;;;;16.93;6.67;;;;;;;15.07;63.03;100491.86;1750212;80;21428;-64
2021/09/18 01:47:55;;;;;;;20.90;7.70;;;;;;;15.04;62.97;100489.45;1749968;82;21003;-64
2021/09/18 01:50:38;;;;;;;10.32;6.45;;;;;;;15.02;63.42;100487.89;1749976;82;20916;-63
2021/09/18 01:53:06;;;;;;;14.53;6.10;;;;;;;15.02;63.46;100493.17;1750064;82;20996;-64
2021/09/18 01:55:34;;;;;;;22.45;7.85;;;;;;;15.02;63.51;100494.01;1750215;80;21135;-64
2021/09/18 01:58:01;;;;;;;10.43;6.22;;;;;;;15.01;63.50;100492.83;1750148;82;20928;-64
2021/09/18 02:00:28;;;;;;;13.35;7.47;;;;;;;15.01;63.44;100484.91;1750147;82;21342;-64
2021/09/18 02:02:55;;;;;;;15.23;6.60;;;;;;;15.00;63.49;100489.81;1750363;80;20896;-64
2021/09/18 02:05:26;;;;;;;18.77;7.50;;;;;;;14.93;63.95;100492.11;1750474;82;20920;-63
2021/09/18 02:07:54;;;;;;;11.22;6.85;;;;;;;14.93;63.95;100492.11;1752123;82;21405;-64
2021/09/18 02:10:25;;;;;;;21.00;7.20;;;;;;;14.92;63.75;100491.28;1748550;81;20979;-64
2021/09/18 02:12:54;;;;;;;14.73;6.35;;;;;;;14.92;63.94;100491.28;1736843;81;21390;-63
2021/09/18 02:15:22;;;;;;;12.47;6.22;;;;;;;14.90;64.13;100483.13;1736549;82;21434;-64
2021/09/18 02:17:51;;;;;;;15.72;7.28;;;;;;;14.90;64.31;100485.77;1736169;81;20892;-63
2021/09/18 02:20:22;;;;;;;13.88;7.28;;;;;;;14.91;64.44;100476.88;1736169;82;20913;-64
2021/09/18 02:22:49;;;;;;;12.28;6.97;;;;;;;14.93;64.39;100478.91;1736353;82;20850;-64
2021/09/18 02:25:16;;;;;;;15.20;7.10;;;;;;;14.95;64.42;100479.62;1736062;82;21550;-63
2021/09/18 02:27:43;;;;;;;12.05;6.60;;;;;;;14.97;64.47;100474.23;1736101;82;20932;-63
2021/09/18 02:30:17;;;;;;;15.18;7.80;;;;;;;14.93;64.47;100476.27;1736321;82;20917;-62
2021/09/18 02:32:45;;;;;;;15.80;8.10;;;;;;;14.93;64.47;100474.95;1736549;82;21098;-64
2021/09/18 02:35:16;;;;;;;13.32;7.47;;;;;;;14.91;64.56;100480.34;1736119;82;21442;-64
2021/09/18 02:37:43;;;;;;;13.53;7.30;;;;;;;14.90;64.59;100469.44;1736327;81;20905;-64
2021/09/18 02:40:12;;;;;;;12.90;6.25;;;;;;;14.87;64.72;100465.73;1736097;82;20945;-64
2021/09/18 02:42:46;;;;;;;13.83;6.85;;;;;;;14.90;65.27;100468.61;1736387;82;21043;-63
2021/09/18 02:45:13;;;;;;;15.35;7.58;;;;;;;14.90;65.27;100468.61;1736131;81;21141;-64
2021/09/18 02:47:42;;;;;;;11.38;6.92;;;;;;;14.91;65.09;100471.59;1736093;81;20929;-64
2021/09/18 02:50:11;;;;;;;18.23;6.60;;;;;;;14.91;65.13;100460.54;1736173;82;21521;-64
2021/09/18 02:52:39;;;;;;;18.45;6.97;;;;;;;14.91;65.06;100467.14;1736019;82;21367;-63
2021/09/18 02:55:08;;;;;;;13.35;6.97;;;;;;;14.92;65.02;100461.41;1736030;82;20932;-63
2021/09/18 02:57:37;;;;;;;16.12;7.25;;;;;;;14.92;64.99;100456.12;1736106;82;21339;-63
2021/09/18 03:00:08;;;;;;;15.80;6.72;;;;;;;14.90;64.94;100462.84;1736323;82;20881;-64
2021/09/18 03:02:35;;;;;;;22.80;6.50;;;;;;;14.91;64.96;100459.22;1736050;82;21421;-63
2021/09/18 03:05:05;;;;;;;17.30;6.65;;;;;;;14.91;65.01;100464.50;1736080;81;20909;-63
2021/09/18 03:07:33;;;;;;;15.10;6.22;;;;;;;14.90;65.12;100464.16;1736249;82;21402;-64
2021/09/18 03:10:01;;;;;;;15.58;6.17;;;;;;;14.91;65.26;100468.95;1736028;82;21143;-64
2021/09/18 03:12:28;;;;;;;13.95;6.33;;;;;;;14.91;65.35;100467.14;1744007;81;20884;-63
2021/09/18 03:14:55;;;;;;;14.90;7.12;;;;;;;14.95;65.52;100464.27;1744350;82;20956;-64
2021/09/18 03:17:22;;;;;;;10.98;6.30;;;;;;;14.96;66.05;100464.61;1744359;82;20905;-63
2021/09/18 03:19:52;;;;;;;17.32;7.08;;;;;;;14.96;66.05;100464.61;1744191;82;21022;-63
2021/09/18 03:22:20;;;;;;;20.92;7.50;;;;;;;14.96;66.32;100461.97;1744167;82;20963;-64
2021/09/18 03:24:49;;;;;;;19.42;7.75;;;;;;;14.97;66.58;100460.54;1744091;82;21343;-64
2021/09/18 03:27:17;;;;;;;16.32;7.75;;;;;;;14.98;66.84;100464.84;1744501;82;21426;-63
2021/09/18 03:29:45;;;;;;;18.07;9.10;;;;;;;14.98;67.35;100458.73;1744097;81;20934;-64
2021/09/18 03:32:12;;;;;;;15.58;8.65;;;;;;;14.99;67.68;100461.75;1744272;82;21418;-63
2021/09/18 03:34:38;;;;;;;25.48;10.80;;;;;;;15.01;68.07;100459.82;1744319;82;21086;-63
2021/09/18 03:37:06;;;;;;;20.30;9.63;;;;;;;15.07;68.21;100460.63;1744228;82;20944;-63
2021/09/18 03:39:32;;;;;;;19.67;10.68;;;;;;;15.12;68.53;100460.62;1744134;82;20975;-63
2021/09/18 03:42:01;;;;;;;23.73;11.43;;;;;;;15.16;68.57;100456.39;1744190;82;20912;-63
2021/09/18 03:44:28;;;;;;;23.52;14.35;;;;;;;15.21;68.94;100456.39;1744463;82;20861;-62
2021/09/18 03:46:55;;;;;;;32.42;15.23;;;;;;;15.25;69.18;100456.95;1744308;82;21798;-63
2021/09/18 03:49:22;;;;;;;34.53;15.03;;;;;;;15.27;69.15;100453.70;1744250;81;20837;-64
2021/09/18 03:51:49;;;;;;;33.73;14.07;;;;;;;15.30;69.46;100455.62;1744166;82;20920;-63
2021/09/18 03:54:17;;;;;;;28.02;15.80;;;;;;;15.31;69.59;100453.32;1744358;82;21391;-64
2021/09/18 03:56:44;;;;;;;34.55;18.30;;;;;;;15.33;69.76;100458.49;1744187;82;20960;-63
2021/09/18 03:59:12;;;;;;;40.30;19.85;;;;;;;15.33;69.82;100455.36;1744266;82;22355;-63
2021/09/18 04:01:40;;;;;;;35.85;19.40;;;;;;;15.36;70.18;100467.47;1744106;82;20877;-63
2021/09/18 04:04:09;;;;;;;31.57;17.35;;;;;;;15.40;70.49;100466.75;1744197;81;20939;-63
2021/09/18 04:06:36;;;;;;;35.52;17.30;;;;;;;15.45;70.62;100469.84;1744504;82;21382;-63
2021/09/18 04:09:04;;;;;;;32.00;17.52;;;;;;;15.48;70.55;100478.36;1744267;81;20849;-63
2021/09/18 04:11:31;;;;;;;34.50;17.62;;;;;;;15.52;70.63;100481.11;1740766;81;21103;-62
2021/09/18 04:13:58;;;;;;;37.00;17.20;;;;;;;15.55;70.72;100479.52;1736039;82;20920;-63
2021/09/18 04:16:25;;;;;;;35.63;16.95;;;;;;;15.58;70.63;100475.78;1736361;82;20906;-63
2021/09/18 04:18:53;;;;;;;31.10;15.95;;;;;;;15.64;70.77;100481.05;1736069;82;20996;-63
2021/09/18 04:21:20;;;;;;;34.23;17.05;;;;;;;15.66;70.88;100485.24;1735998;81;21454;-65
2021/09/18 04:23:47;;;;;;;31.50;16.70;;;;;;;15.71;70.90;100482.25;1736239;82;21155;-63
2021/09/18 04:26:14;;;;;;;34.80;17.42;;;;;;;15.75;70.88;100483.67;1736192;81;20877;-64
2021/09/18 04:28:43;;;;;;;40.23;19.07;;;;;;;15.83;70.82;100490.48;1736002;81;20952;-63
2021/09/18 04:31:10;;;;;;;36.85;19.25;;;;;;;15.88;70.72;100489.60;1735967;82;20891;-63
2021/09/18 04:33:37;;;;;;;39.27;20.75;;;;;;;15.97;70.57;100482.70;1736121;82;20898;-64
2021/09/18 04:36:05;;;;;;;37.40;21.75;;;;;;;16.03;70.36;100485.29;1735936;82;21003;-64
2021/09/18 04:38:33;;;;;;;41.45;21.37;;;;;;;16.08;70.13;100486.59;1736174;82;20972;-65
2021/09/18 04:41:00;;;;;;;43.63;21.60;;;;;;;16.11;69.97;100475.73;1736067;82;20854;-65
2021/09/18 04:43:28;;;;;;;45.73;21.30;;;;;;;16.18;69.78;100481.83;1736168;82;21386;-63
2021/09/18 04:45:55;;;;;;;47.48;20.68;;;;;;;16.22;69.68;100481.42;1736019;81;20945;-63
2021/09/18 04:48:23;;;;;;;42.65;21.95;;;;;;;16.28;69.52;100486.20;1735944;82;21931;-65
2021/09/18 04:50:50;;;;;;;44.03;22.35;;;;;;;16.42;69.39;100482.84;1735869;82;20929;-63
2021/09/18 04:53:17;;;;;;;40.63;21.40;;;;;;;16.71;69.07;100478.97;1736081;82;20901;-63
2021/09/18 04:55:46;;;;;;;37.67;20.40;;;;;;;17.14;68.20;100478.67;1735906;81;20893;-64
2021/09/18 04:58:12;;;;;;;47.73;22.90;;;;;;;17.67;67.04;100489.82;1736178;82;21422;-63
2021/09/18 05:00:39;;;;;;;37.42;21.35;;;;;;;18.13;65.53;100490.39;1736528;81;21078;-64
2021/09/18 05:03:07;;;;;;;41.33;22.48;;;;;;;18.53;64.05;100489.27;1736366;82;20956;-71
2021/09/18 05:05:37;;;;;;;41.42;20.37;;;;;;;18.95;62.53;100479.48;1736155;81;20893;-71
2021/09/18 05:08:06;;;;;;;34.25;21.02;;;;;;;19.36;61.23;100479.88;1736064;81;20897;-73
2021/09/18 05:10:36;;;;;;;35.48;21.15;;;;;;;19.80;59.97;100481.27;1736031;81;21437;-72
2021/09/18 05:13:03;;;;;;;33.18;20.95;;;;;;;20.18;58.83;100476.51;1743885;81;21552;-72
2021/09/18 05:15:30;;;;;;;37.67;21.10;;;;;;;20.40;57.52;100475.62;1744270;81;20884;-74
2021/09/18 05:17:58;;;;;;;40.78;19.50;;;;;;;20.41;57.02;100484.80;1744526;82;21355;-67
2021/09/18 05:20:27;;;;;;;35.80;20.15;;;;;;;20.25;56.90;100484.23;1744204;82;20897;-70
2021/09/18 05:22:55;;;;;;;38.67;21.20;;;;;;;20.05;57.21;100492.94;1744380;82;21346;-70
2021/09/18 05:25:23;;;;;;;37.53;20.92;;;;;;;19.85;57.49;100493.63;1744221;82;21158;-66
2021/09/18 05:27:51;;;;;;;39.33;22.17;;;;;;;19.62;57.91;100485.26;1744564;81;20967;-66
2021/09/18 05:30:18;;;;;;;43.95;21.25;;;;;;;19.40;58.44;100491.05;1744717;80;21459;-66
2021/09/18 05:32:46;;;;;;;39.63;20.02;;;;;;;19.23;58.92;100488.72;1744867;82;21402;-66
2021/09/18 05:35:12;;;;;;;37.93;20.32;;;;;;;19.20;59.27;100481.89;1745519;82;20988;-65
2021/09/18 05:37:40;;;;;;;38.02;20.95;;;;;;;19.26;59.31;100495.91;1745646;82;21122;-67
2021/09/18 05:40:10;;;;;;;38.95;19.55;;;;;;;19.48;58.97;100489.81;1744519;82;20877;-66
2021/09/18 05:42:37;;;;;;;37.85;20.88;;;;;;;19.91;58.70;100496.14;1744229;82;21008;-65
2021/09/18 05:45:06;;;;;;;40.63;20.92;;;;;;;20.42;57.18;100488.30;1744635;82;20932;-67
2021/09/18 05:47:33;;;;;;;36.45;19.32;;;;;;;20.82;55.91;100482.81;1744268;82;21370;-66
2021/09/18 05:50:00;;;;;;;32.85;18.75;;;;;;;21.18;54.91;100478.55;1744291;82;21101;-68
2021/09/18 05:52:27;;;;;;;31.02;17.87;;;;;;;21.54;53.78;100473.77;1744184;82;21434;-67
2021/09/18 05:54:54;;;;;;;28.42;19.35;;;;;;;21.83;52.92;100477.75;1744475;82;20979;-69
2021/09/18 05:57:21;;;;;;;28.20;17.70;;;;;;;22.01;52.21;100477.55;1744379;82;21011;-66
2021/09/18 05:59:48;;;;;;;30.35;17.77;;;;;;;22.09;51.87;100478.38;1744450;82;20940;-66
2021/09/18 06:02:17;;;;;;;31.33;17.20;;;;;;;22.07;51.40;100481.70;1744329;82;20893;-66
2021/09/18 06:04:45;;;;;;;24.63;16.90;;;;;;;21.92;51.42;100470.91;1744297;81;20936;-68
2021/09/18 06:07:12;;;;;;;25.05;17.00;;;;;;;21.78;51.76;100476.92;1744207;81;20924;-68
2021/09/18 06:09:39;;;;;;;27.75;18.55;;;;;;;21.65;51.69;100472.09;1744322;81;21485;-66
2021/09/18 06:12:08;;;;;;;30.30;16.57;;;;;;;21.49;52.12;100483.61;1740560;82;20917;-78
2021/09/18 06:14:37;;;;;;;28.00;15.10;;;;;;;21.29;52.46;100476.39;1735944;82;20885;-75
2021/09/18 06:17:04;;;;;;;28.30;15.45;;;;;;;21.17;52.64;100471.06;1736133;81;20842;-73
2021/09/18 06:19:31;;;;;;;22.42;13.65;;;;;;;21.10;53.06;100476.73;1736011;82;21015;-72
2021/09/18 06:22:00;;;;;;;25.25;14.30;;;;;;;21.04;53.01;100476.87;1735973;81;20913;-71
2021/09/18 06:24:29;;;;;;;28.02;14.00;;;;;;;20.96;53.25;100474.17;1736166;82;20933;-72
2021/09/18 06:26:57;;;;;;;25.88;14.47;;;;;;;20.94;53.51;100472.17;1736028;81;21399;-74
2021/09/18 06:29:26;;;;;;;28.10;14.45;;;;;;;20.97;53.65;100465.20;1736138;82;21024;-72
2021/09/18 06:31:53;;;;;;;26.60;14.10;;;;;;;21.00;53.61;100468.86;1736217;82;20937;-72
2021/09/18 06:34:20;;;;;;;27.65;14.23;;;;;;;21.07;53.71;100470.37;1736124;81;20988;-72
2021/09/18 06:36:48;;;;;;;21.42;14.53;;;;;;;21.15;53.85;100465.56;1736130;81;20889;-72
2021/09/18 06:39:15;;;;;;;26.17;13.18;;;;;;;21.23;53.65;100456.22;1735948;81;21135;-74
2021/09/18 06:41:42;;;;;;;28.60;14.98;;;;;;;21.29;53.59;100459.56;1736048;81;20936;-71
2021/09/18 06:44:09;;;;;;;24.57;14.60;;;;;;;21.33;53.53;100460.91;1735913;82;20905;-72
2021/09/18 06:46:36;;;;;;;24.60;13.70;;;;;;;21.41;53.46;100458.28;1736038;82;20896;-71
2021/09/18 06:49:04;;;;;;;22.73;13.00;;;;;;;21.45;52.75;100458.25;1736110;81;20909;-71
2021/09/18 06:51:31;;;;;;;20.15;12.30;;;;;;;21.44;52.24;100461.94;1739667;82;21066;-73
2021/09/18 06:54:00;;;;;;;21.60;12.58;;;;;;;21.38;52.31;100453.73;1736094;81;20846;-71
2021/09/18 06:56:27;;;;;;;18.48;11.97;;;;;;;21.32;52.20;100452.08;1736052;82;21012;-71
2021/09/18 06:58:56;;;;;;;21.52;12.37;;;;;;;21.26;51.97;100455.91;1736017;82;20975;-69
2021/09/18 07:01:23;;;;;;;24.10;12.15;;;;;;;21.19;52.08;100456.20;1736123;81;21461;-71
2021/09/18 07:03:50;;;;;;;24.77;13.05;;;;;;;21.13;52.28;100451.05;1736089;81;21128;-70
2021/09/18 07:06:17;;;;;;;23.77;13.20;;;;;;;21.07;52.44;100450.37;1736039;82;21037;-70
2021/09/18 07:08:45;;;;;;;23.65;11.75;;;;;;;21.03;52.47;100455.69;1736060;81;20945;-70
2021/09/18 07:11:13;;;;;;;25.15;11.35;;;;;;;20.99;52.32;100455.71;1735907;82;21011;-71
2021/09/18 07:13:40;;;;;;;20.72;10.95;;;;;;;20.95;51.73;100451.20;1743755;81;20857;-73
2021/09/18 07:16:07;;;;;;;22.85;11.25;;;;;;;20.88;51.43;100453.67;1744170;81;21085;-74
2021/09/18 07:18:35;;;;;;;25.37;12.63;;;;;;;20.83;51.07;100453.34;1744040;82;20932;-73
2021/09/18 07:21:04;;;;;;;32.88;13.50;;;;;;;20.76;51.15;100450.97;1743846;82;21402;-74
2021/09/18 07:23:32;;;;;;;26.10;13.20;;;;;;;20.72;51.27;100443.46;1744139;82;20944;-68
2021/09/18 07:25:59;;;;;;;31.00;14.58;;;;;;;20.71;51.34;100438.64;1744303;80;21457;-66
2021/09/18 07:28:26;;;;;;;26.48;13.78;;;;;;;20.73;51.12;100434.48;1744120;82;21971;-66
2021/09/18 07:30:53;;;;;;;25.37;12.13;;;;;;;20.75;51.32;100441.83;1744113;81;20952;-67
2021/09/18 07:33:20;;;;;;;28.35;12.55;;;;;;;20.78;50.53;100429.49;1744195;82;21391;-70
2021/09/18 07:35:47;;;;;;;29.65;12.23;;;;;;;20.76;49.94;100424.31;1744219;81;20900;-67
2021/09/18 07:38:14;;;;;;;24.50;11.55;;;;;;;20.75;49.19;100435.16;1744461;82;20873;-68
2021/09/18 07:40:42;;;;;;;20.05;10.85;;;;;;;20.72;48.27;100439.47;1744143;82;21118;-67
2021/09/18 07:43:09;;;;;;;19.92;9.68;;;;;;;20.66;48.36;100436.97;1744214;81;21411;-66
2021/09/18 07:45:37;;;;;;;25.23;10.32;;;;;;;20.62;48.34;100431.62;1744249;82;20933;-66
2021/09/18 07:48:04;;;;;;;29.15;11.57;;;;;;;20.60;48.81;100430.95;1744236;82;20980;-66
2021/09/18 07:50:32;;;;;;;30.75;10.38;;;;;;;20.56;49.05;100434.39;1744097;82;20983;-66
2021/09/18 07:52:58;;;;;;;21.90;10.63;;;;;;;20.54;49.46;100436.38;1744080;82;21747;-67
2021/09/18 07:55:27;;;;;;;22.32;11.12;;;;;;;20.52;49.23;100438.88;1744018;82;20936;-68
2021/09/18 07:57:54;;;;;;;25.05;10.65;;;;;;;20.47;49.37;100438.85;1744484;80;21025;-68
2021/09/18 08:00:23;;;;;;;22.22;11.15;;;;;;;20.42;49.41;100439.84;1744207;82;20917;-66
2021/09/18 08:02:52;;;;;;;22.77;9.70;;;;;;;20.35;49.63;100441.48;1744182;82;20849;-66
2021/09/18 08:05:19;;;;;;;18.52;10.53;;;;;;;20.29;49.52;100436.79;1744219;82;21530;-66
2021/09/18 08:07:46;;;;;;;24.12;12.60;;;;;;;20.23;49.84;100441.41;1744159;82;20896;-65
2021/09/18 08:10:14;;;;;;;34.63;13.20;;;;;;;20.19;50.39;100434.26;1744362;82;21409;-65
2021/09/18 08:12:45;;;;;;;28.85;13.43;;;;;;;20.17;50.40;100438.08;1746626;81;20979;-66
2021/09/18 08:15:12;;;;;;;35.05;14.65;;;;;;;20.14;50.66;100427.73;1749810;82;20975;-66
2021/09/18 08:17:39;;;;;;;28.50;15.28;;;;;;;20.13;50.78;100434.06;1750096;82;21123;-66
2021/09/18 08:20:08;;;;;;;29.45;15.53;;;;;;;20.12;50.95;100425.72;1749938;82;20979;-65
2021/09/18 08:22:35;;;;;;;35.13;17.05;;;;;;;20.11;51.15;100432.88;1750175;80;20968;-65
2021/09/18 08:25:06;;;;;;;35.85;18.32;;;;;;;20.09;51.43;100432.20;1749696;82;20880;-65
2021/09/18 08:27:35;;;;;;;30.52;17.30;;;;;;;20.06;52.09;100437.34;1750410;82;21448;-65
2021/09/18 08:30:04;;;;;;;31.95;15.83;;;;;;;20.02;52.74;100435.99;1750101;82;21819;-66
2021/09/18 08:32:31;;;;;;;37.45;18.30;;;;;;;19.95;53.36;100428.30;1749461;80;20950;-64
2021/09/18 08:34:59;;;;;;;36.38;19.17;;;;;;;19.89;54.21;100432.92;1750245;80;21430;-64
2021/09/18 08:37:26;;;;;;;41.05;21.80;;;;;;;19.81;54.57;100422.22;1750505;80;20873;-63
2021/09/18 08:39:53;;;;;;;35.38;21.23;;;;;;;19.73;54.99;100425.67;1750559;82;20988;-66
2021/09/18 08:42:21;;;;;;;35.43;22.05;;;;;;;19.65;55.58;100421.11;1750414;82;21083;-63
2021/09/18 08:44:48;;;;;;;39.60;21.00;;;;;;;19.59;56.23;100422.23;1750161;82;20916;-63
2021/09/18 08:47:16;;;;;;;39.00;19.62;;;;;;;19.52;57.07;100410.52;1750195;82;20892;-65
2021/09/18 08:49:43;;;;;;;43.05;19.60;;;;;;;19.43;57.10;100410.48;1750292;80;21468;-65
2021/09/18 08:52:10;;;;;;;34.70;18.32;;;;;;;19.36;57.76;100406.75;1750359;82;20861;-63
2021/09/18 08:54:41;;;;;;;40.00;20.37;;;;;;;19.31;58.24;100409.04;1749746;82;21146;-66
2021/09/18 08:57:10;;;;;;;38.53;19.90;;;;;;;19.26;58.58;100405.52;1752390;81;20916;-66
2021/09/18 08:59:38;;;;;;;38.70;22.05;;;;;;;19.22;59.05;100405.48;1752382;82;20900;-66
2021/09/18 09:02:20;;;;;;;38.55;22.42;;;;;;;19.18;59.42;100408.09;1751616;80;20943;-66
2021/09/18 09:04:48;;;;;;;39.93;23.03;;;;;;;19.15;59.66;100404.42;1750857;82;20936;-66
2021/09/18 09:07:16;;;;;;;37.67;23.98;;;;;;;19.13;60.06;100403.74;1750432;80;21581;-66
2021/09/18 09:09:56;;;;;;;51.55;25.55;;;;;;;19.12;60.31;100399.43;1750016;82;20889;-65
2021/09/18 09:12:29;;;;;;;47.38;27.65;;;;;;;19.11;60.66;100394.26;1750153;80;21039;-70
2021/09/18 09:15:00;;;;;;;56.60;30.80;;;;;;;19.11;61.09;100392.92;1747115;80;20888;-69
2021/09/18 09:17:32;;;;;;;45.28;25.45;;;;;;;19.10;61.23;100391.23;1749919;81;20904;-67
2021/09/18 09:20:00;;;;;;;51.02;26.62;;;;;;;19.08;61.36;100386.09;1750230;82;20972;-66
2021/09/18 09:22:44;;;;;;;42.27;23.55;;;;;;;19.08;61.57;100386.60;1750116;82;20940;-67
2021/09/18 09:25:30;;;;;;;39.67;21.00;;;;;;;19.08;61.78;100386.09;1748679;80;21509;-68
2021/09/18 09:27:59;;;;;;;32.33;17.25;;;;;;;19.09;61.86;100386.42;1750165;80;20940;-65
2021/09/18 09:30:33;;;;;;;26.40;14.98;;;;;;;19.11;61.95;100385.78;1750277;82;20884;-67
2021/09/18 09:33:09;;;;;;;27.40;15.00;;;;;;;19.12;62.15;100387.94;1750096;82;21497;-64
2021/09/18 09:35:37;;;;;;;27.90;14.18;;;;;;;19.12;62.12;100389.27;1750102;82;21509;-64
2021/09/18 09:38:06;;;;;;;22.48;13.35;;;;;;;19.13;62.42;100386.47;1750071;82;20984;-63
2021/09/18 09:40:45;;;;;;;21.93;13.90;;;;;;;19.15;62.33;100388.98;1749998;80;21441;-63
2021/09/18 09:43:13;;;;;;;25.35;14.30;;;;;;;19.17;62.46;100390.99;1750261;82;20983;-64
2021/09/18 09:45:40;;;;;;;31.30;14.75;;;;;;;19.18;62.56;100394.80;1750032;82;22043;-63
2021/09/18 09:48:13;;;;;;;27.37;16.10;;;;;;;19.21;62.89;100396.34;1750014;82;20912;-64
2021/09/18 09:50:44;;;;;;;26.87;14.73;;;;;;;19.24;63.20;100395.53;1750039;81;20927;-66
2021/09/18 09:53:28;;;;;;;30.52;16.42;;;;;;;19.28;62.94;100399.23;1749851;82;20952;-64
2021/09/18 09:55:55;;;;;;;26.55;15.93;;;;;;;19.32;62.68;100391.25;1749671;80;20954;-65
2021/09/18 09:58:22;;;;;;;31.00;17.42;;;;;;;19.39;62.68;100396.32;1750336;82;21180;-68
2021/09/18 10:00:51;;;;;;;27.65;17.17;;;;;;;19.43;62.57;100398.98;1715652;82;20924;-65
2021/09/18 10:03:22;;;;;;;31.10;19.02;;;;;;;19.48;62.62;100396.72;1750393;82;20893;-66
2021/09/18 10:05:50;;;;;;;33.48;18.57;;;;;;;19.52;63.14;100398.08;1750116;82;21374;-66
2021/09/18 10:08:23;;;;;;;32.35;18.65;;;;;;;19.54;63.71;100394.77;1750074;82;20899;-66
2021/09/18 10:10:50;;;;;;;32.40;18.57;;;;;;;19.56;63.89;100390.61;1750068;82;21813;-64
2021/09/18 10:13:25;;;;;;;32.88;18.45;;;;;;;19.57;64.25;100386.97;1744719;81;20853;-64
2021/09/18 10:15:53;;;;;;;35.48;19.37;;;;;;;19.57;64.42;100382.98;1736323;82;20878;-69
2021/09/18 10:18:22;;;;;;;37.10;20.27;;;;;;;19.57;64.58;100378.98;1736068;81;20858;-68
2021/09/18 10:23:24;;;;;;;37.65;16.90;;;;;;;19.59;64.65;100376.50;1736098;82;21179;-67
2021/09/18 10:25:58;;;;;;;23.07;12.58;;;;;;;19.60;63.93;100371.52;1736157;82;20983;-67
2021/09/18 10:28:28;;;;;;;23.92;12.70;;;;;;;19.64;63.50;100366.72;1736095;81;21438;-69
2021/09/18 10:31:12;;;;;;;23.57;11.70;;;;;;;19.70;62.94;100371.92;1736005;81;20870;-67
2021/09/18 10:33:44;;;;;;;22.82;12.33;;;;;;;19.77;62.47;100370.33;1716692;82;21315;-69
2021/09/18 10:36:17;;;;;;;14.50;8.48;;;;;;;19.85;62.21;100366.36;1736103;82;21759;-69
2021/09/18 10:39:08;;;;;;;16.55;9.45;;;;;;;19.95;60.79;100363.59;1735581;82;20972;-76
2021/09/18 10:41:47;;;;;;;14.63;6.72;;;;;;;20.08;60.68;100356.00;1736499;82;20965;-68
2021/09/18 10:44:14;;;;;;;15.70;6.00;;;;;;;20.25;59.42;100353.73;1734936;82;21514;-68
2021/09/18 10:46:54;;;;;;;10.60;5.65;;;;;;;20.45;57.74;100347.64;1736419;82;20925;-67
2021/09/18 10:49:39;;;;;;;21.65;6.22;;;;;;;20.63;55.97;100347.53;1735222;81;21142;-66
2021/09/18 10:52:28;;;;;;;10.70;5.67;;;;;;;20.83;55.30;100342.73;1736368;81;20968;-69
2021/09/18 10:55:08;;;;;;;13.88;6.25;;;;;;;21.00;53.51;100338.72;1736110;82;20913;-67
2021/09/18 10:57:48;;;;;;;12.47;4.35;;;;;;;21.15;52.17;100337.56;1736205;82;20949;-67
2021/09/18 11:00:27;;;;;;;12.05;5.12;;;;;;;21.24;50.95;100327.21;1735322;82;20988;-67
2021/09/18 11:03:00;;;;;;;16.32;5.28;;;;;;;21.33;50.48;100330.20;1736318;82;21648;-66
2021/09/18 11:05:42;;;;;;;15.30;4.85;;;;;;;21.40;50.23;100328.50;1736181;82;21422;-66
2021/09/18 11:08:18;;;;;;;11.38;4.45;;;;;;;21.46;49.74;100323.86;1736343;82;21521;-68
2021/09/18 11:10:51;;;;;;;12.45;4.85;;;;;;;21.49;49.24;100323.52;1736083;81;21292;-69
2021/09/18 11:13:22;;;;;;;8.50;5.08;;;;;;;21.51;48.84;100324.69;1740000;81;20952;-66
2021/09/18 11:15:57;;;;;;;12.00;4.20;;;;;;;21.51;48.49;100322.84;1750075;82;20848;-68
2021/09/18 11:18:31;;;;;;;12.15;4.33;;;;;;;21.52;48.16;100319.19;1750173;82;21462;-68
2021/09/18 11:21:16;;;;;;;8.83;3.55;;;;;;;21.52;48.13;100311.19;1750107;81;20932;-68
2021/09/18 11:23:47;;;;;;;;;;;;;;;21.54;48.20;100312.33;1752606;80;20935;-65